Time;durP1;ratioP1;P1;durP2;ratioP2;P2;SDS_P1;SDS_P2;PMS_P1;PMS_P2;Temp;Humidity;BMP_temperature;BMP_pressure;BME280_temperature;BME280_humidity;BME280_pressure;Samples;Min_cycle;Max_cycle;Signal;HPM_P1;HPM_P2
2024/01/26 00:00:05;;;;;;;23.95;8.10;;;8.90;99.90;;;;;;5043246;28;20037;-76
2024/01/26 00:02:30;;;;;;;19.23;8.68;;;8.90;99.90;;;;;;5036666;28;20487;-75
2024/01/26 00:04:56;;;;;;;26.00;9.07;;;8.90;99.90;;;;;;5055302;28;20047;-76
2024/01/26 00:07:22;;;;;;;21.65;8.18;;;8.90;99.90;;;;;;5082012;28;20051;-76
2024/01/26 00:09:48;;;;;;;19.88;9.63;;;8.90;99.90;;;;;;5046734;28;20056;-76
2024/01/26 00:12:13;;;;;;;23.08;8.57;;;8.90;99.90;;;;;;5031629;28;20041;-76
2024/01/26 00:14:39;;;;;;;19.95;8.10;;;8.90;99.90;;;;;;5058904;28;20041;-76
2024/01/26 00:17:04;;;;;;;21.48;8.70;;;8.90;99.90;;;;;;5062534;28;20038;-76
2024/01/26 00:19:30;;;;;;;19.63;8.05;;;8.90;99.90;;;;;;5049323;28;20044;-76
2024/01/26 00:21:56;;;;;;;22.10;9.25;;;8.90;99.90;;;;;;5037584;28;20044;-76
2024/01/26 00:24:22;;;;;;;23.63;7.50;;;9.00;99.90;;;;;;5033193;28;20038;-76
2024/01/26 00:26:48;;;;;;;17.85;7.53;;;8.90;99.90;;;;;;5027099;28;20147;-76
2024/01/26 00:29:13;;;;;;;18.45;8.07;;;8.90;99.90;;;;;;5039851;28;20044;-76
2024/01/26 00:31:39;;;;;;;18.88;6.65;;;8.90;99.90;;;;;;5050584;28;20058;-75
2024/01/26 00:34:05;;;;;;;21.77;8.75;;;8.90;99.90;;;;;;5070336;28;20116;-76
2024/01/26 00:36:30;;;;;;;25.88;8.15;;;9.00;99.90;;;;;;5053517;28;20052;-76
2024/01/26 00:38:56;;;;;;;23.73;9.45;;;9.00;99.90;;;;;;5078807;28;20062;-76
2024/01/26 00:41:22;;;;;;;21.90;7.72;;;9.00;99.90;;;;;;5069929;28;20068;-76
2024/01/26 00:43:47;;;;;;;17.27;8.38;;;9.00;99.90;;;;;;5070717;28;20041;-76
2024/01/26 00:46:13;;;;;;;16.83;8.32;;;9.00;99.90;;;;;;5024817;28;20037;-76
2024/01/26 00:48:39;;;;;;;22.40;8.48;;;9.00;99.90;;;;;;5059043;28;20048;-76
2024/01/26 00:51:06;;;;;;;17.92;7.80;;;9.00;99.90;;;;;;5094371;28;20045;-76
2024/01/26 00:53:32;;;;;;;18.67;7.57;;;9.10;99.90;;;;;;5072143;28;20044;-76
2024/01/26 00:55:58;;;;;;;21.23;8.77;;;9.00;99.90;;;;;;5062170;28;20515;-76
2024/01/26 00:58:24;;;;;;;18.90;8.15;;;9.10;99.90;;;;;;5037500;28;20074;-76
2024/01/26 01:00:50;;;;;;;17.80;8.02;;;9.00;99.90;;;;;;5070503;28;20123;-76
2024/01/26 01:03:15;;;;;;;20.08;9.25;;;9.10;99.90;;;;;;5055552;28;20099;-76
2024/01/26 01:05:42;;;;;;;18.65;7.85;;;9.00;99.90;;;;;;5022090;28;20037;-76
2024/01/26 01:08:08;;;;;;;18.20;7.88;;;9.10;99.90;;;;;;5070948;28;20095;-76
2024/01/26 01:10:34;;;;;;;20.80;8.10;;;9.10;99.90;;;;;;5078843;28;20052;-76
2024/01/26 01:12:59;;;;;;;21.42;9.52;;;9.10;99.90;;;;;;5046133;28;20123;-76
2024/01/26 01:15:25;;;;;;;18.60;7.82;;;9.10;99.90;;;;;;5051403;28;20048;-75
2024/01/26 01:17:51;;;;;;;22.90;8.27;;;9.10;99.90;;;;;;5058753;28;20062;-75
2024/01/26 01:20:17;;;;;;;17.77;7.88;;;9.10;99.90;;;;;;5040067;28;20146;-75
2024/01/26 01:22:47;;;;;;;22.27;8.18;;;9.10;99.90;;;;;;5038383;28;20055;-76
2024/01/26 01:25:13;;;;;;;23.58;8.25;;;9.10;99.90;;;;;;5074288;28;20049;-76
2024/01/26 01:27:39;;;;;;;21.83;7.70;;;9.10;99.90;;;;;;5057517;28;20148;-76
2024/01/26 01:30:09;;;;;;;18.00;7.15;;;9.10;99.90;;;;;;5057080;28;20044;-76
2024/01/26 01:32:35;;;;;;;20.20;7.35;;;9.10;99.90;;;;;;5042864;28;20488;-76
2024/01/26 01:35:02;;;;;;;19.48;7.90;;;9.10;99.90;;;;;;5066813;28;20064;-75
2024/01/26 01:37:28;;;;;;;17.90;6.85;;;9.20;99.90;;;;;;5061081;28;20069;-75
2024/01/26 01:39:53;;;;;;;16.85;7.53;;;9.20;99.90;;;;;;5039915;28;20048;-76
2024/01/26 01:42:19;;;;;;;21.02;8.60;;;9.20;99.90;;;;;;5067094;28;20776;-76
2024/01/26 01:44:46;;;;;;;15.32;7.70;;;9.20;99.90;;;;;;5076845;28;20178;-75
2024/01/26 01:47:13;;;;;;;17.60;7.13;;;9.20;99.90;;;;;;5053963;28;20044;-76
2024/01/26 01:49:41;;;;;;;17.55;7.35;;;9.20;99.90;;;;;;5043294;28;20105;-76
2024/01/26 01:52:18;;;;;;;17.48;7.10;;;9.20;99.90;;;;;;5055363;28;20155;-76
2024/01/26 01:54:45;;;;;;;22.23;7.00;;;9.20;99.90;;;;;;5050835;28;20063;-76
2024/01/26 01:57:12;;;;;;;15.88;7.13;;;9.20;99.90;;;;;;5051087;28;20045;-75
2024/01/26 01:59:38;;;;;;;15.75;7.90;;;9.20;99.90;;;;;;5078932;28;20055;-76
2024/01/26 02:02:04;;;;;;;12.40;6.43;;;9.20;99.90;;;;;;5054768;28;20045;-75
2024/01/26 02:04:31;;;;;;;16.52;7.28;;;9.20;99.90;;;;;;5058749;28;20053;-75
2024/01/26 02:07:01;;;;;;;20.75;8.45;;;9.20;99.90;;;;;;5046724;28;20470;-75
2024/01/26 02:09:27;;;;;;;12.57;6.43;;;9.20;99.90;;;;;;5082248;28;20086;-75
2024/01/26 02:11:55;;;;;;;16.75;6.88;;;9.30;99.90;;;;;;5077974;28;20048;-75
2024/01/26 02:14:21;;;;;;;15.73;6.07;;;9.20;99.90;;;;;;5092654;28;20036;-75
2024/01/26 02:16:53;;;;;;;19.63;6.43;;;9.30;99.90;;;;;;5076351;28;20052;-75
2024/01/26 02:19:19;;;;;;;;;;;9.30;99.90;;;;;;5043745;28;20071;-75
2024/01/26 02:21:45;;;;;;;18.40;7.20;;;9.30;99.90;;;;;;5069773;28;19931;-75
2024/01/26 02:24:12;;;;;;;13.95;5.82;;;9.30;99.90;;;;;;5051703;28;20048;-76
2024/01/26 02:26:39;;;;;;;13.45;6.88;;;9.30;99.90;;;;;;5079536;28;20086;-75
2024/01/26 02:29:04;;;;;;;16.30;6.70;;;9.30;99.90;;;;;;5035406;28;20040;-75
2024/01/26 02:31:30;;;;;;;13.32;6.35;;;9.40;99.90;;;;;;5049351;28;20088;-75
2024/01/26 02:33:56;;;;;;;12.82;5.97;;;9.30;99.90;;;;;;5077186;28;20062;-75
2024/01/26 02:36:22;;;;;;;13.32;6.00;;;9.30;99.90;;;;;;5078677;28;20045;-75
2024/01/26 02:38:47;;;;;;;11.50;5.85;;;9.40;99.90;;;;;;5050611;28;20047;-75
2024/01/26 02:41:13;;;;;;;11.98;5.72;;;9.40;99.90;;;;;;5070600;28;20051;-75
2024/01/26 02:43:39;;;;;;;13.02;5.85;;;9.40;99.90;;;;;;5053007;28;20037;-75
2024/01/26 02:46:09;;;;;;;13.80;7.13;;;9.40;99.90;;;;;;5047984;28;20045;-75
2024/01/26 02:48:35;;;;;;;12.23;6.03;;;9.40;99.90;;;;;;5072579;28;20080;-75
2024/01/26 02:51:01;;;;;;;12.52;5.82;;;9.40;99.90;;;;;;5035528;28;20039;-75
2024/01/26 02:53:27;;;;;;;13.90;6.80;;;9.40;99.90;;;;;;5076702;28;20127;-75
2024/01/26 02:55:52;;;;;;;16.45;6.35;;;9.40;99.90;;;;;;5033559;28;20028;-75
2024/01/26 02:58:18;;;;;;;11.95;6.32;;;9.50;99.90;;;;;;5088804;28;20045;-75
2024/01/26 03:00:44;;;;;;;16.15;5.80;;;9.50;99.90;;;;;;5026393;28;20047;-75
2024/01/26 03:03:10;;;;;;;13.50;6.45;;;9.50;99.90;;;;;;5033138;28;20586;-75
2024/01/26 03:05:36;;;;;;;13.43;6.63;;;9.50;99.90;;;;;;5072149;28;20037;-75
2024/01/26 03:08:01;;;;;;;15.38;6.88;;;9.50;99.90;;;;;;5051436;28;20059;-75
2024/01/26 03:10:27;;;;;;;13.57;5.85;;;9.50;99.90;;;;;;5034722;28;20044;-75
2024/01/26 03:12:53;;;;;;;14.77;6.75;;;9.50;99.90;;;;;;5047264;28;20044;-75
2024/01/26 03:15:19;;;;;;;13.05;5.53;;;9.50;99.90;;;;;;5038826;28;20048;-75
2024/01/26 03:17:44;;;;;;;15.20;6.03;;;9.50;99.90;;;;;;5067887;28;20044;-75
2024/01/26 03:20:10;;;;;;;15.10;6.93;;;9.50;99.90;;;;;;5041395;28;20471;-74
2024/01/26 03:22:36;;;;;;;15.43;6.88;;;9.50;99.90;;;;;;5055832;28;20036;-74
2024/01/26 03:25:03;;;;;;;13.00;6.13;;;9.50;99.90;;;;;;5037279;28;20052;-75
2024/01/26 03:27:29;;;;;;;11.45;5.18;;;9.50;99.90;;;;;;5062148;28;20045;-74
2024/01/26 03:29:55;;;;;;;13.02;6.18;;;9.60;99.90;;;;;;5046505;28;20062;-75
2024/01/26 03:32:20;;;;;;;14.40;6.72;;;9.50;99.90;;;;;;5054603;28;20036;-75
2024/01/26 03:34:46;;;;;;;13.85;6.03;;;9.50;99.90;;;;;;5044555;28;20131;-75
2024/01/26 03:37:12;;;;;;;13.75;5.68;;;9.50;99.90;;;;;;5035809;28;20042;-75
2024/01/26 03:39:37;;;;;;;12.32;5.25;;;9.50;99.90;;;;;;5057347;28;20072;-74
2024/01/26 03:42:04;;;;;;;12.63;5.97;;;9.60;99.90;;;;;;5036520;28;20567;-75
2024/01/26 03:44:30;;;;;;;12.13;5.15;;;9.60;99.90;;;;;;5039755;28;20029;-74
2024/01/26 03:46:56;;;;;;;10.45;5.13;;;9.60;99.90;;;;;;5020771;28;20045;-75
2024/01/26 03:49:21;;;;;;;12.68;5.47;;;9.60;99.90;;;;;;5056693;28;20072;-74
2024/01/26 03:51:47;;;;;;;11.60;5.75;;;9.60;99.90;;;;;;5056564;28;20060;-75
2024/01/26 03:54:13;;;;;;;13.13;6.32;;;9.70;99.90;;;;;;5039096;28;20132;-75
2024/01/26 03:56:39;;;;;;;10.93;4.88;;;9.60;99.90;;;;;;5041372;28;20045;-74
2024/01/26 03:59:04;;;;;;;12.98;5.60;;;9.60;99.90;;;;;;5053201;28;20049;-74
2024/01/26 04:01:30;;;;;;;14.82;5.57;;;9.70;99.90;;;;;;5024386;28;20049;-74
2024/01/26 04:03:57;;;;;;;14.45;6.20;;;9.70;99.90;;;;;;5061361;28;20229;-74
2024/01/26 04:06:23;;;;;;;15.82;5.45;;;9.70;99.90;;;;;;5060812;28;20040;-74
2024/01/26 04:08:48;;;;;;;13.20;5.55;;;9.70;99.90;;;;;;5030397;28;20498;-74
2024/01/26 04:11:14;;;;;;;10.02;5.10;;;9.70;99.90;;;;;;5015332;28;20379;-74
2024/01/26 04:13:40;;;;;;;11.80;5.15;;;9.80;99.90;;;;;;5049584;28;20053;-74
2024/01/26 04:16:08;;;;;;;10.48;5.45;;;9.80;99.90;;;;;;5061322;28;20128;-74
2024/01/26 04:18:34;;;;;;;12.63;6.03;;;9.80;99.90;;;;;;5039570;28;20076;-74
2024/01/26 04:21:00;;;;;;;10.93;4.75;;;9.80;99.90;;;;;;5077994;28;20044;-74
2024/01/26 04:23:25;;;;;;;9.40;4.75;;;9.80;99.90;;;;;;5077354;28;20040;-74
2024/01/26 04:25:51;;;;;;;12.30;5.28;;;9.80;99.90;;;;;;5056733;28;20036;-74
2024/01/26 04:28:17;;;;;;;11.57;5.85;;;9.90;99.90;;;;;;5032832;28;20076;-74
2024/01/26 04:30:43;;;;;;;11.52;5.88;;;9.80;99.90;;;;;;5057279;28;20422;-74
2024/01/26 04:33:09;;;;;;;14.75;6.10;;;9.90;99.90;;;;;;5035657;28;20400;-74
2024/01/26 04:35:35;;;;;;;11.65;5.68;;;9.90;99.90;;;;;;5055453;28;20036;-74
2024/01/26 04:38:01;;;;;;;13.85;5.78;;;9.90;99.90;;;;;;5035682;28;20545;-74
2024/01/26 04:40:26;;;;;;;16.90;7.20;;;9.90;99.90;;;;;;5040512;28;20097;-74
2024/01/26 04:42:52;;;;;;;15.52;6.47;;;9.90;99.90;;;;;;5076418;28;20047;-74
2024/01/26 04:45:18;;;;;;;17.63;6.18;;;9.90;99.90;;;;;;5082681;28;20100;-74
2024/01/26 04:47:43;;;;;;;10.20;5.57;;;10.00;99.90;;;;;;5039033;28;20049;-74
2024/01/26 04:50:10;;;;;;;15.02;7.18;;;10.00;99.90;;;;;;5015094;28;20085;-74
2024/01/26 04:52:35;;;;;;;13.80;6.78;;;10.00;99.90;;;;;;5036274;28;20538;-74
2024/01/26 04:55:01;;;;;;;18.17;7.40;;;10.00;99.90;;;;;;5045961;28;20040;-74
2024/01/26 04:57:27;;;;;;;18.08;6.30;;;10.10;99.90;;;;;;5040728;28;20052;-74
2024/01/26 04:59:52;;;;;;;17.08;6.90;;;10.00;99.90;;;;;;5056229;28;20046;-74
2024/01/26 05:02:18;;;;;;;12.95;7.00;;;10.10;99.90;;;;;;5050782;28;20051;-74
2024/01/26 05:04:44;;;;;;;15.27;6.22;;;10.20;99.90;;;;;;5040653;28;20477;-74
2024/01/26 05:07:10;;;;;;;13.48;6.05;;;10.10;99.90;;;;;;5049767;28;20092;-74
2024/01/26 05:09:36;;;;;;;14.25;7.38;;;10.10;99.90;;;;;;5047380;28;20108;-74
2024/01/26 05:12:02;;;;;;;12.50;6.95;;;10.20;99.90;;;;;;5063701;28;20067;-74
2024/01/26 05:14:28;;;;;;;13.55;6.22;;;10.10;99.90;;;;;;5087059;28;20123;-74
2024/01/26 05:16:53;;;;;;;17.05;6.35;;;10.20;99.90;;;;;;5058370;28;20048;-74
2024/01/26 05:19:19;;;;;;;13.55;6.13;;;10.20;99.90;;;;;;5033551;28;20467;-75
2024/01/26 05:21:45;;;;;;;13.73;6.95;;;10.20;99.90;;;;;;5045040;28;20043;-74
2024/01/26 05:24:10;;;;;;;9.52;5.55;;;10.30;99.90;;;;;;5055887;28;20052;-74
2024/01/26 05:26:39;;;;;;;13.80;6.63;;;10.30;99.90;;;;;;5047194;28;20048;-75
2024/01/26 05:29:06;;;;;;;14.02;6.90;;;10.30;99.90;;;;;;5059119;28;20075;-75
2024/01/26 05:31:33;;;;;;;13.18;6.60;;;10.30;99.90;;;;;;5054830;28;20104;-74
2024/01/26 05:34:00;;;;;;;11.38;6.45;;;10.30;99.90;;;;;;5059575;28;20119;-74
2024/01/26 05:36:25;;;;;;;11.43;4.78;;;10.30;99.90;;;;;;5014203;28;20037;-75
2024/01/26 05:38:51;;;;;;;14.10;6.93;;;10.30;99.90;;;;;;5054354;28;20084;-75
2024/01/26 05:41:17;;;;;;;16.58;6.35;;;10.30;99.90;;;;;;5045717;28;20044;-75
2024/01/26 05:43:42;;;;;;;11.73;6.10;;;10.30;99.90;;;;;;5031971;28;20054;-75
2024/01/26 05:46:08;;;;;;;14.48;5.55;;;10.30;99.90;;;;;;5063374;28;20037;-75
2024/01/26 05:48:33;;;;;;;12.60;6.55;;;10.30;99.90;;;;;;5051738;28;20041;-75
2024/01/26 05:50:59;;;;;;;12.77;5.60;;;10.30;99.90;;;;;;5073163;28;20044;-75
2024/01/26 05:53:25;;;;;;;13.10;6.63;;;10.30;99.90;;;;;;5070671;28;20036;-75
2024/01/26 05:55:50;;;;;;;14.13;5.38;;;10.30;99.90;;;;;;5070669;28;20044;-75
2024/01/26 05:58:16;;;;;;;11.35;5.45;;;10.30;99.90;;;;;;5096232;28;20048;-75
2024/01/26 06:00:42;;;;;;;11.65;5.18;;;10.30;99.90;;;;;;5053902;28;20052;-75
2024/01/26 06:03:08;;;;;;;9.77;5.95;;;10.40;99.90;;;;;;5052414;28;20037;-75
2024/01/26 06:05:34;;;;;;;12.48;6.10;;;10.30;99.90;;;;;;5032751;28;20045;-76
2024/01/26 06:08:00;;;;;;;8.93;5.45;;;10.30;99.90;;;;;;5042619;28;20075;-76
2024/01/26 06:10:26;;;;;;;11.35;5.25;;;10.30;99.90;;;;;;5051196;28;20127;-76
2024/01/26 06:12:51;;;;;;;12.02;5.07;;;10.30;99.90;;;;;;5079438;28;20044;-76
2024/01/26 06:15:17;;;;;;;10.82;5.47;;;10.40;99.90;;;;;;5062310;28;20048;-76
2024/01/26 06:17:43;;;;;;;9.95;4.65;;;10.40;99.90;;;;;;5080709;28;20048;-76
2024/01/26 06:20:11;;;;;;;11.27;4.95;;;10.40;99.90;;;;;;5067154;28;20037;-76
2024/01/26 06:22:37;;;;;;;9.32;4.75;;;10.40;99.90;;;;;;5053001;28;20049;-76
2024/01/26 06:25:03;;;;;;;10.93;4.75;;;10.40;99.90;;;;;;5066630;28;20063;-76
2024/01/26 06:27:28;;;;;;;9.23;4.47;;;10.40;99.90;;;;;;5064021;28;20495;-76
2024/01/26 06:29:54;;;;;;;6.78;4.30;;;10.40;99.90;;;;;;5079544;28;20040;-76
2024/01/26 06:32:20;;;;;;;8.85;4.35;;;10.40;99.90;;;;;;5080203;28;20462;-77
2024/01/26 06:34:46;;;;;;;9.95;4.70;;;10.40;99.90;;;;;;5068322;28;20446;-77
2024/01/26 06:37:12;;;;;;;6.88;4.30;;;10.40;99.90;;;;;;5080475;28;20096;-77
2024/01/26 06:39:38;;;;;;;6.13;3.58;;;10.40;99.90;;;;;;5063019;28;20091;-77
2024/01/26 06:42:04;;;;;;;11.85;4.43;;;10.40;99.90;;;;;;5076367;28;20495;-77
2024/01/26 06:44:32;;;;;;;9.35;4.25;;;10.40;99.90;;;;;;5064113;28;20516;-77
2024/01/26 06:46:58;;;;;;;8.52;3.85;;;10.40;99.90;;;;;;5096209;28;20094;-77
2024/01/26 06:49:24;;;;;;;6.78;3.83;;;10.50;99.90;;;;;;5079569;28;20037;-77
2024/01/26 06:51:49;;;;;;;8.32;3.80;;;10.50;99.90;;;;;;5062643;28;20045;-77
2024/01/26 06:54:15;;;;;;;7.03;3.75;;;10.50;99.90;;;;;;5035420;28;20047;-77
2024/01/26 06:56:40;;;;;;;6.88;3.58;;;10.50;99.90;;;;;;5075570;28;20056;-77
2024/01/26 06:59:06;;;;;;;5.93;3.38;;;10.50;99.90;;;;;;5078840;28;20063;-78
2024/01/26 07:01:32;;;;;;;9.23;3.30;;;10.50;99.90;;;;;;5052876;28;20403;-78
2024/01/26 07:03:58;;;;;;;14.23;4.15;;;10.50;99.90;;;;;;5069908;28;20472;-77
2024/01/26 07:06:23;;;;;;;9.45;3.53;;;10.50;99.90;;;;;;5058453;28;20571;-77
2024/01/26 07:08:49;;;;;;;7.13;3.70;;;10.50;99.90;;;;;;5055548;28;20049;-77
2024/01/26 07:11:16;;;;;;;5.72;3.25;;;10.50;99.90;;;;;;5053698;28;20041;-76
2024/01/26 07:13:42;;;;;;;6.30;3.33;;;10.50;99.90;;;;;;5058550;28;20052;-77
2024/01/26 07:16:08;;;;;;;6.80;3.00;;;10.50;99.90;;;;;;5057669;28;20671;-77
2024/01/26 07:18:34;;;;;;;5.63;2.80;;;10.50;99.90;;;;;;5051912;28;20077;-78
2024/01/26 07:21:05;;;;;;;7.00;2.60;;;10.50;99.90;;;;;;5066706;28;20110;-77
2024/01/26 07:23:31;;;;;;;6.85;2.85;;;10.50;99.90;;;;;;5066192;28;20113;-78
2024/01/26 07:25:56;;;;;;;6.75;3.50;;;10.50;99.90;;;;;;5078448;28;20048;-78
2024/01/26 07:28:22;;;;;;;3.90;2.80;;;10.40;99.90;;;;;;5070576;28;20041;-78
2024/01/26 07:30:48;;;;;;;5.07;2.90;;;10.50;99.90;;;;;;5064480;28;20041;-78
2024/01/26 07:33:13;;;;;;;6.25;2.90;;;10.50;99.90;;;;;;5079546;28;20044;-79
2024/01/26 07:35:39;;;;;;;3.97;2.40;;;10.50;99.90;;;;;;5052656;28;20063;-78
2024/01/26 07:38:04;;;;;;;4.50;2.92;;;10.50;99.90;;;;;;5078665;28;20040;-79
2024/01/26 07:40:30;;;;;;;4.47;2.10;;;10.40;99.90;;;;;;5063391;28;20098;-78
2024/01/26 07:42:56;;;;;;;6.13;2.30;;;10.50;99.90;;;;;;5077257;28;20051;-77
2024/01/26 07:45:21;;;;;;;3.97;2.15;;;10.50;99.90;;;;;;5077811;28;20052;-78
2024/01/26 07:47:47;;;;;;;6.05;2.42;;;10.50;99.90;;;;;;5060362;28;20052;-78
2024/01/26 07:50:13;;;;;;;3.95;2.20;;;10.50;99.90;;;;;;5046609;28;20044;-79
2024/01/26 07:52:39;;;;;;;2.97;1.80;;;10.40;99.90;;;;;;5057302;28;20056;-79
2024/01/26 07:55:06;;;;;;;3.72;2.42;;;10.50;99.90;;;;;;5075896;28;20419;-78
2024/01/26 07:57:31;;;;;;;8.73;1.63;;;10.50;99.90;;;;;;5057810;28;20049;-77
2024/01/26 07:59:57;;;;;;;4.82;2.10;;;10.50;99.90;;;;;;5068672;28;20057;-77
2024/01/26 08:02:23;;;;;;;3.95;2.20;;;10.50;99.90;;;;;;5071423;28;20037;-77
2024/01/26 08:04:48;;;;;;;3.40;2.42;;;10.50;99.90;;;;;;5064170;28;20362;-78
2024/01/26 08:07:15;;;;;;;4.00;2.03;;;10.50;99.90;;;;;;5069867;28;20532;-78
2024/01/26 08:09:43;;;;;;;3.17;2.10;;;10.50;99.90;;;;;;5079001;28;20473;-78
2024/01/26 08:12:08;;;;;;;5.10;2.50;;;10.50;99.90;;;;;;5055720;28;20029;-77
2024/01/26 08:14:34;;;;;;;2.63;1.52;;;10.50;99.90;;;;;;5058943;28;20070;-78
2024/01/26 08:17:00;;;;;;;2.45;1.73;;;10.50;99.90;;;;;;5058103;28;20033;-78
2024/01/26 08:19:25;;;;;;;4.25;2.80;;;10.50;99.90;;;;;;5054285;28;20041;-78
2024/01/26 08:21:51;;;;;;;3.17;1.50;;;10.50;99.90;;;;;;5048100;28;20370;-77
2024/01/26 08:24:17;;;;;;;3.78;1.52;;;10.60;99.90;;;;;;5055481;28;20148;-78
2024/01/26 08:26:42;;;;;;;12.25;1.85;;;10.60;99.90;;;;;;5055746;28;20075;-78
2024/01/26 08:29:08;;;;;;;3.25;1.90;;;10.70;99.90;;;;;;5034151;28;20377;-78
2024/01/26 08:31:34;;;;;;;2.25;1.95;;;10.70;99.90;;;;;;5074236;28;20044;-78
2024/01/26 08:33:59;;;;;;;3.47;2.00;;;10.70;99.90;;;;;;5042969;28;20037;-79
2024/01/26 08:36:25;;;;;;;5.45;2.67;;;10.80;99.90;;;;;;5041537;28;20043;-78
2024/01/26 08:38:54;;;;;;;3.92;2.15;;;10.80;99.90;;;;;;5071175;28;20083;-79
2024/01/26 08:41:20;;;;;;;3.70;2.17;;;10.80;99.90;;;;;;5067662;28;20094;-79
2024/01/26 08:43:46;;;;;;;5.57;2.58;;;10.90;99.90;;;;;;5074652;28;20044;-79
2024/01/26 08:46:11;;;;;;;4.78;2.58;;;10.90;99.90;;;;;;5075947;28;20077;-78
2024/01/26 08:48:37;;;;;;;4.28;2.38;;;10.80;99.90;;;;;;5055831;28;20080;-79
2024/01/26 08:51:03;;;;;;;5.22;2.28;;;10.90;99.90;;;;;;5059570;28;20052;-79
2024/01/26 08:53:28;;;;;;;6.25;4.00;;;10.90;99.90;;;;;;5080948;28;20127;-79
2024/01/26 08:55:54;;;;;;;5.55;3.05;;;10.80;99.90;;;;;;5072632;28;20101;-79
2024/01/26 08:58:20;;;;;;;6.88;3.42;;;10.90;99.90;;;;;;5074808;28;20041;-78
2024/01/26 09:00:45;;;;;;;6.85;3.60;;;10.90;99.90;;;;;;5053089;28;20550;-79
2024/01/26 09:03:11;;;;;;;5.45;2.75;;;10.90;99.90;;;;;;5069656;28;20105;-78
2024/01/26 09:05:37;;;;;;;6.35;3.47;;;10.90;99.90;;;;;;5071482;28;20080;-78
2024/01/26 09:08:03;;;;;;;4.25;2.70;;;10.90;99.90;;;;;;5098035;28;20048;-79
2024/01/26 09:10:29;;;;;;;4.03;3.28;;;10.90;99.90;;;;;;5042300;28;20051;-78
2024/01/26 09:12:56;;;;;;;6.28;4.03;;;10.90;99.90;;;;;;5039073;28;20044;-79
2024/01/26 09:15:22;;;;;;;6.18;3.47;;;10.90;99.90;;;;;;5048671;28;20028;-79
2024/01/26 09:17:47;;;;;;;6.88;3.72;;;10.90;99.90;;;;;;5050150;28;20063;-79
2024/01/26 09:20:13;;;;;;;8.73;3.83;;;10.90;99.90;;;;;;5058672;28;20048;-80
2024/01/26 09:22:39;;;;;;;6.22;3.45;;;11.00;99.90;;;;;;5056518;28;20041;-79
2024/01/26 09:25:05;;;;;;;5.80;2.80;;;11.00;99.90;;;;;;5054981;28;20041;-77
2024/01/26 09:27:30;;;;;;;3.90;2.45;;;11.00;99.90;;;;;;5052162;28;20077;-77
2024/01/26 09:29:56;;;;;;;1.50;1.27;;;11.00;99.90;;;;;;5057334;28;20118;-77
2024/01/26 09:32:22;;;;;;;1.05;0.88;;;11.00;99.90;;;;;;5051363;28;20049;-73
2024/01/26 09:34:48;;;;;;;0.52;0.38;;;10.80;99.90;;;;;;5054842;28;20079;-75
2024/01/26 09:37:13;;;;;;;0.50;0.30;;;10.40;99.90;;;;;;5048443;28;20057;-76
2024/01/26 09:39:39;;;;;;;0.65;0.38;;;10.10;99.90;;;;;;5053790;28;20100;-77
2024/01/26 09:42:05;;;;;;;1.02;0.30;;;9.80;99.90;;;;;;5050441;28;20088;-77
2024/01/26 09:44:31;;;;;;;0.90;0.35;;;9.60;99.90;;;;;;5058230;28;20040;-77
2024/01/26 09:46:57;;;;;;;1.30;0.30;;;9.50;99.90;;;;;;5051001;28;20044;-78
2024/01/26 09:49:27;;;;;;;2.63;0.68;;;9.40;99.90;;;;;;5055729;28;20044;-79
2024/01/26 09:51:53;;;;;;;4.43;0.50;;;9.30;99.90;;;;;;5048868;28;20041;-79
2024/01/26 09:54:20;;;;;;;4.63;0.63;;;9.20;99.90;;;;;;5058002;28;20105;-79
2024/01/26 09:56:47;;;;;;;2.00;0.30;;;9.20;99.90;;;;;;5060253;28;20577;-79
2024/01/26 09:59:13;;;;;;;1.27;0.35;;;9.20;99.90;;;;;;5075366;28;20415;-80
2024/01/26 10:01:41;;;;;;;0.68;0.43;;;9.10;99.90;;;;;;5058357;28;20051;-79
2024/01/26 10:04:08;;;;;;;1.10;0.10;;;9.10;99.90;;;;;;5075634;28;20049;-81
2024/01/26 10:06:34;;;;;;;4.00;0.60;;;9.00;99.90;;;;;;5073647;28;20040;-79
2024/01/26 10:09:01;;;;;;;0.57;0.28;;;9.00;99.90;;;;;;5074879;28;20066;-80
2024/01/26 10:11:27;;;;;;;1.85;0.95;;;8.90;99.90;;;;;;5075583;28;20082;-79
2024/01/26 10:13:53;;;;;;;5.28;0.55;;;8.90;99.90;;;;;;5056867;28;20112;-80
2024/01/26 10:16:18;;;;;;;4.55;0.40;;;8.80;99.90;;;;;;5043440;28;20065;-80
2024/01/26 10:18:46;;;;;;;5.03;0.77;;;8.80;99.90;;;;;;5037885;28;20056;-80
2024/01/26 10:21:13;;;;;;;1.08;0.40;;;8.80;99.90;;;;;;5060510;28;20103;-79
2024/01/26 10:23:40;;;;;;;5.57;0.65;;;8.80;99.90;;;;;;5071443;28;20115;-79
2024/01/26 10:26:06;;;;;;;2.25;0.95;;;8.80;99.90;;;;;;5072595;28;20089;-79
2024/01/26 10:28:32;;;;;;;13.20;1.30;;;8.80;99.90;;;;;;5039146;28;20056;-79
2024/01/26 10:30:58;;;;;;;3.05;0.77;;;8.80;99.90;;;;;;5079177;28;20045;-79
2024/01/26 10:33:24;;;;;;;7.50;0.80;;;8.80;99.90;;;;;;5079548;28;20044;-78
2024/01/26 10:35:59;;;;;;;2.40;0.50;;;8.80;99.90;;;;;;5089846;28;20124;-78
2024/01/26 10:38:25;;;;;;;4.60;1.38;;;8.80;99.90;;;;;;5068789;28;20049;-78
2024/01/26 10:41:00;;;;;;;3.42;0.68;;;8.80;99.90;;;;;;5077909;28;20045;-77
2024/01/26 10:43:26;;;;;;;5.38;0.98;;;8.80;99.90;;;;;;5064715;28;20040;-77
2024/01/26 10:45:53;;;;;;;1.08;0.52;;;8.90;99.90;;;;;;5045686;28;20080;-76
2024/01/26 10:48:19;;;;;;;3.58;0.75;;;8.90;99.90;;;;;;5031473;28;20040;-76
2024/01/26 10:50:46;;;;;;;6.15;0.75;;;9.00;99.90;;;;;;5073195;28;20045;-76
2024/01/26 10:53:13;;;;;;;7.55;1.33;;;9.00;99.90;;;;;;5078193;28;20040;-76
2024/01/26 10:55:40;;;;;;;14.52;1.17;;;9.00;99.90;;;;;;5059716;28;20577;-76
2024/01/26 10:58:07;;;;;;;4.18;0.80;;;8.90;99.90;;;;;;5041923;28;20044;-76
2024/01/26 11:00:33;;;;;;;8.07;1.15;;;8.90;99.90;;;;;;5079023;28;20043;-76
2024/01/26 11:02:59;;;;;;;9.95;0.95;;;8.90;99.90;;;;;;5069685;28;20041;-75
2024/01/26 11:05:25;;;;;;;6.38;0.85;;;8.90;99.90;;;;;;5072284;28;20140;-76
2024/01/26 11:07:52;;;;;;;1.80;0.60;;;8.90;99.90;;;;;;5068913;28;20566;-75
2024/01/26 11:10:24;;;;;;;0.80;0.60;;;8.90;99.90;;;;;;5094911;28;20696;-75
2024/01/26 11:13:00;;;;;;;;;;;8.90;99.90;;;;;;5096004;28;20044;-75
2024/01/26 11:15:26;;;;;;;8.40;1.10;;;8.90;99.90;;;;;;5041601;28;19920;-75
2024/01/26 11:17:53;;;;;;;1.98;0.47;;;8.90;99.90;;;;;;5052028;28;20051;-75
2024/01/26 11:20:31;;;;;;;11.65;1.92;;;8.90;99.90;;;;;;5052560;28;20059;-74
2024/01/26 11:23:14;;;;;;;4.65;1.00;;;8.80;99.90;;;;;;5036604;28;20116;-75
2024/01/26 11:25:53;;;;;;;11.15;1.50;;;8.80;99.90;;;;;;5044711;28;20036;-75
2024/01/26 11:28:25;;;;;;;10.85;1.13;;;8.80;99.90;;;;;;5083882;28;20080;-75
2024/01/26 11:30:57;;;;;;;2.60;0.88;;;8.70;99.90;;;;;;5065350;28;20033;-75
2024/01/26 11:33:23;;;;;;;3.53;1.15;;;8.80;99.90;;;;;;5068501;28;20414;-75
2024/01/26 11:35:49;;;;;;;7.55;1.45;;;8.80;99.90;;;;;;5069889;28;20044;-75
2024/01/26 11:38:17;;;;;;;10.48;1.15;;;8.80;99.90;;;;;;5054734;28;20048;-75
2024/01/26 11:40:43;;;;;;;10.88;1.13;;;8.70;99.90;;;;;;5055304;28;20041;-74
2024/01/26 11:43:10;;;;;;;16.55;1.20;;;8.80;99.90;;;;;;5051373;28;20044;-75
2024/01/26 11:45:42;;;;;;;8.65;1.08;;;8.80;99.90;;;;;;5056789;28;20045;-75
2024/01/26 11:48:09;;;;;;;4.25;1.30;;;8.80;99.90;;;;;;5045868;28;20732;-75
2024/01/26 11:50:40;;;;;;;1.05;0.70;;;8.80;99.90;;;;;;5056116;28;20045;-75
2024/01/26 11:53:06;;;;;;;9.80;1.20;;;8.70;99.90;;;;;;5074074;28;20055;-74
2024/01/26 11:55:32;;;;;;;8.60;1.60;;;8.70;99.90;;;;;;5077981;28;20054;-75
2024/01/26 11:57:58;;;;;;;9.02;0.60;;;8.70;99.90;;;;;;5078998;28;20044;-74
2024/01/26 12:00:23;;;;;;;4.93;0.73;;;8.70;99.90;;;;;;5053182;28;20044;-74
2024/01/26 12:02:49;;;;;;;3.97;1.13;;;8.70;99.90;;;;;;5067665;28;20079;-74
2024/01/26 12:05:19;;;;;;;10.40;1.17;;;8.70;99.90;;;;;;5061989;28;20036;-74
2024/01/26 12:07:45;;;;;;;4.15;1.42;;;8.60;99.90;;;;;;5073442;28;20036;-75
2024/01/26 12:10:14;;;;;;;13.45;1.60;;;8.60;99.90;;;;;;5077220;28;20075;-74
2024/01/26 12:12:41;;;;;;;11.63;1.73;;;8.60;99.90;;;;;;5069674;28;20044;-74
2024/01/26 12:15:09;;;;;;;11.35;1.08;;;8.60;99.90;;;;;;5059118;28;20083;-74
2024/01/26 12:17:35;;;;;;;3.65;0.68;;;8.60;99.90;;;;;;5057896;28;20045;-74
2024/01/26 12:20:08;;;;;;;9.48;1.05;;;8.60;99.90;;;;;;5058635;28;20075;-74
2024/01/26 12:22:37;;;;;;;10.75;1.17;;;8.50;99.90;;;;;;5058736;28;20100;-74
2024/01/26 12:25:07;;;;;;;5.05;1.08;;;8.50;99.90;;;;;;5054684;28;20064;-74
2024/01/26 12:27:36;;;;;;;6.40;0.80;;;8.50;99.90;;;;;;5063860;28;20095;-74
2024/01/26 12:30:03;;;;;;;5.85;1.60;;;8.50;99.90;;;;;;5069153;28;20840;-74
2024/01/26 12:32:29;;;;;;;16.27;1.25;;;8.40;99.90;;;;;;5062003;28;20064;-74
2024/01/26 12:34:55;;;;;;;7.60;1.50;;;8.50;99.90;;;;;;5065695;28;20088;-74
2024/01/26 12:37:21;;;;;;;4.07;0.65;;;8.40;99.90;;;;;;5078942;28;20053;-74
2024/01/26 12:39:47;;;;;;;9.88;1.20;;;8.30;99.90;;;;;;5059870;28;20404;-74
2024/01/26 12:42:13;;;;;;;13.77;0.90;;;8.30;99.90;;;;;;5063834;28;20048;-74